Time,TemperatureF,DewpointF,PressureIn,WindDirection,WindDirectionDegrees,WindSpeedMPH,WindSpeedGustMPH,Humidity,HourlyPrecipIn,Conditions,Clouds,dailyrainin,SolarRadiationWatts/m^2,SoftwareType,DateUTC
2013-04-27 00:21:00,37.0,34.0,-100.00,NE,36,0.0,2.0,87,-99.99,,,0.00,1.000000,,2013-04-27 07:21:00,
2013-04-27 01:11:00,35.0,33.0,-100.00,ENE,67,0.0,0.0,92,-99.99,,,0.00,1.000000,,2013-04-27 08:11:00,
2013-04-27 01:21:00,35.0,33.0,-100.00,ENE,67,0.0,0.0,92,-99.99,,,0.00,1.000000,,2013-04-27 08:21:00,
2013-04-27 02:11:00,33.0,31.0,-100.00,ENE,60,0.0,2.0,93,-99.99,,,0.00,1.000000,,2013-04-27 09:11:00,
2013-04-27 02:21:00,33.0,31.0,-100.00,ENE,60,0.0,2.0,93,-99.99,,,0.00,1.000000,,2013-04-27 09:21:00,
2013-04-27 03:22:00,32.0,30.0,-100.00,NE,45,0.0,2.0,94,-99.99,,,0.00,1.000000,,2013-04-27 10:22:00,
2013-04-27 04:11:00,31.0,29.0,-100.00,ESE,112,0.0,2.0,94,-99.99,,,0.00,1.000000,,2013-04-27 11:11:00,
2013-04-27 04:22:00,31.0,29.0,-100.00,ESE,112,0.0,2.0,94,-99.99,,,0.00,1.000000,,2013-04-27 11:22:00,
2013-04-27 05:21:00,30.0,28.0,-100.00,NNE,17,0.0,0.0,94,-99.99,,,0.00,1.000000,,2013-04-27 12:21:00,
2013-04-27 06:21:00,29.0,27.0,-100.00,SSE,157,0.0,0.0,94,-99.99,,,0.00,1.000000,,2013-04-27 13:21:00,
2013-04-27 07:11:00,29.0,27.0,-100.00,SSE,154,0.0,0.0,94,-99.99,,,0.00,14.000000,,2013-04-27 14:11:00,
2013-04-27 07:21:00,29.0,27.0,-100.00,SSE,154,0.0,0.0,94,-99.99,,,0.00,14.000000,,2013-04-27 14:21:00,
2013-04-27 08:11:00,39.0,38.0,-100.00,WSW,237,0.0,2.0,95,-99.99,,,-99.99,136.000000,,2013-04-27 15:11:00,
2013-04-27 08:21:00,39.0,38.0,-100.00,WSW,237,0.0,2.0,95,-99.99,,,-99.99,136.000000,,2013-04-27 15:21:00,
2013-04-27 08:33:00,39.0,38.0,-100.00,WSW,237,0.0,2.0,95,-99.99,,,-99.99,136.000000,,2013-04-27 15:33:00,
2013-04-27 08:51:00,53.0,36.0,-100.00,ENE,61,1.0,3.0,53,-99.99,,,0.00,427.000000,,2013-04-27 15:51:00,
2013-04-27 09:13:00,53.0,36.0,-100.00,ENE,61,1.0,3.0,53,-99.99,,,0.00,427.000000,,2013-04-27 16:13:00,
2013-04-27 09:22:00,53.0,36.0,-100.00,ENE,61,1.0,3.0,53,-99.99,,,0.00,427.000000,,2013-04-27 16:22:00,
2013-04-27 09:32:00,53.0,36.0,-100.00,ENE,61,1.0,3.0,53,-99.99,,,0.00,427.000000,,2013-04-27 16:32:00,
2013-04-27 09:42:00,53.0,36.0,-100.00,ENE,61,1.0,3.0,53,-99.99,,,0.00,427.000000,,2013-04-27 16:42:00,
2013-04-27 09:51:00,60.0,36.0,-100.00,NNE,31,2.0,5.0,40,0.00,,,0.00,634.000000,,2013-04-27 16:51:00,
2013-04-27 10:22:00,60.0,36.0,-100.00,NNE,31,2.0,5.0,40,0.00,,,0.00,634.000000,,2013-04-27 17:22:00,
2013-04-27 10:31:00,60.0,36.0,-100.00,NNE,31,2.0,5.0,40,0.00,,,0.00,634.000000,,2013-04-27 17:31:00,
2013-04-27 10:42:00,60.0,36.0,-100.00,NNE,31,2.0,5.0,40,0.00,,,0.00,634.000000,,2013-04-27 17:42:00,
2013-04-27 10:51:00,67.0,38.0,-100.00,NNW,341,4.0,7.0,35,0.00,,,0.00,805.000000,,2013-04-27 17:51:00,
2013-04-27 11:11:00,67.0,38.0,-100.00,NNW,341,4.0,7.0,35,0.00,,,0.00,805.000000,,2013-04-27 18:11:00,
2013-04-27 11:22:00,67.0,38.0,-100.00,NNW,341,4.0,7.0,35,0.00,,,0.00,805.000000,,2013-04-27 18:22:00,
2013-04-27 11:32:00,67.0,38.0,-100.00,NNW,341,4.0,7.0,35,0.00,,,0.00,805.000000,,2013-04-27 18:32:00,
2013-04-27 11:41:00,67.0,38.0,-100.00,NNW,341,4.0,7.0,35,0.00,,,0.00,805.000000,,2013-04-27 18:41:00,
2013-04-27 11:51:00,68.0,32.0,-100.00,NE,48,5.0,10.0,26,0.00,,,0.00,928.000000,,2013-04-27 18:51:00,
2013-04-27 12:11:00,68.0,32.0,-100.00,NE,48,5.0,10.0,26,0.00,,,0.00,928.000000,,2013-04-27 19:11:00,
2013-04-27 12:21:00,68.0,32.0,-100.00,NE,48,5.0,10.0,26,0.00,,,0.00,928.000000,,2013-04-27 19:21:00,
2013-04-27 12:32:00,68.0,32.0,-100.00,NE,48,5.0,10.0,26,0.00,,,0.00,928.000000,,2013-04-27 19:32:00,
2013-04-27 12:42:00,68.0,32.0,-100.00,NE,48,5.0,10.0,26,0.00,,,0.00,928.000000,,2013-04-27 19:42:00,
2013-04-27 12:51:00,71.0,25.0,-100.00,SSE,153,4.0,9.0,18,0.00,,,0.00,991.000000,,2013-04-27 19:51:00,
2013-04-27 13:11:00,71.0,25.0,-100.00,SSE,153,4.0,9.0,18,0.00,,,0.00,991.000000,,2013-04-27 20:11:00,
2013-04-27 13:21:00,71.0,25.0,-100.00,SSE,153,4.0,9.0,18,0.00,,,0.00,991.000000,,2013-04-27 20:21:00,
2013-04-27 13:32:00,71.0,25.0,-100.00,SSE,153,4.0,9.0,18,0.00,,,0.00,991.000000,,2013-04-27 20:32:00,
2013-04-27 13:41:00,71.0,25.0,-100.00,SSE,153,4.0,9.0,18,0.00,,,0.00,991.000000,,2013-04-27 20:41:00,
2013-04-27 13:51:00,73.0,26.0,-100.00,WNW,291,5.0,13.0,17,0.00,,,0.00,987.000000,,2013-04-27 20:51:00,
2013-04-27 14:11:00,73.0,26.0,-100.00,WNW,291,5.0,13.0,17,0.00,,,0.00,987.000000,,2013-04-27 21:11:00,
2013-04-27 14:21:00,73.0,26.0,-100.00,WNW,291,5.0,13.0,17,0.00,,,0.00,987.000000,,2013-04-27 21:21:00,
2013-04-27 14:32:00,73.0,26.0,-100.00,WNW,291,5.0,13.0,17,0.00,,,0.00,987.000000,,2013-04-27 21:32:00,
2013-04-27 14:42:00,73.0,26.0,-100.00,WNW,291,5.0,13.0,17,0.00,,,0.00,987.000000,,2013-04-27 21:42:00,
2013-04-27 14:51:00,73.0,28.0,-100.00,WNW,282,6.0,12.0,19,0.00,,,0.00,931.000000,,2013-04-27 21:51:00,
2013-04-27 15:12:00,73.0,28.0,-100.00,WNW,282,6.0,12.0,19,0.00,,,0.00,931.000000,,2013-04-27 22:12:00,
2013-04-27 15:22:00,73.0,28.0,-100.00,WNW,282,6.0,12.0,19,0.00,,,0.00,931.000000,,2013-04-27 22:22:00,
2013-04-27 15:32:00,73.0,28.0,-100.00,WNW,282,6.0,12.0,19,0.00,,,0.00,931.000000,,2013-04-27 22:32:00,
2013-04-27 15:42:00,73.0,28.0,-100.00,WNW,282,6.0,12.0,19,0.00,,,0.00,931.000000,,2013-04-27 22:42:00,
2013-04-27 15:51:00,72.0,30.0,-100.00,WNW,300,6.0,15.0,21,0.00,,,0.00,812.000000,,2013-04-27 22:51:00,
2013-04-27 16:22:00,72.0,30.0,-100.00,WNW,300,6.0,15.0,21,0.00,,,0.00,812.000000,,2013-04-27 23:22:00,
2013-04-27 16:32:00,72.0,30.0,-100.00,WNW,300,6.0,15.0,21,0.00,,,0.00,812.000000,,2013-04-27 23:32:00,
2013-04-27 16:42:00,72.0,30.0,-100.00,WNW,300,6.0,15.0,21,0.00,,,0.00,812.000000,,2013-04-27 23:42:00,
2013-04-27 16:51:00,71.0,30.0,-100.00,West,260,6.0,13.0,22,0.00,,,0.00,644.000000,,2013-04-27 23:51:00,
2013-04-27 17:11:00,71.0,30.0,-100.00,West,260,6.0,13.0,22,0.00,,,0.00,644.000000,,2013-04-28 00:11:00,
2013-04-27 17:21:00,71.0,30.0,-100.00,West,260,6.0,13.0,22,0.00,,,0.00,644.000000,,2013-04-28 00:21:00,
2013-04-27 17:31:00,71.0,30.0,-100.00,West,260,6.0,13.0,22,0.00,,,0.00,644.000000,,2013-04-28 00:31:00,
2013-04-27 17:42:00,71.0,30.0,-100.00,West,260,6.0,13.0,22,0.00,,,0.00,644.000000,,2013-04-28 00:42:00,
2013-04-27 17:51:00,67.0,30.0,-100.00,West,269,4.0,13.0,25,0.00,,,0.00,319.000000,,2013-04-28 00:51:00,
2013-04-27 18:11:00,67.0,30.0,-100.00,West,269,4.0,13.0,25,0.00,,,0.00,319.000000,,2013-04-28 01:11:00,
2013-04-27 18:21:00,67.0,30.0,-100.00,West,269,4.0,13.0,25,0.00,,,0.00,319.000000,,2013-04-28 01:21:00,
2013-04-27 18:31:00,67.0,30.0,-100.00,West,269,4.0,13.0,25,0.00,,,0.00,319.000000,,2013-04-28 01:31:00,
2013-04-27 18:41:00,67.0,30.0,-100.00,West,269,4.0,13.0,25,0.00,,,0.00,319.000000,,2013-04-28 01:41:00,
2013-04-27 18:51:00,65.0,31.0,-100.00,West,268,3.0,9.0,28,0.00,,,0.00,75.000000,,2013-04-28 01:51:00,
2013-04-27 19:12:00,65.0,31.0,-100.00,West,268,3.0,9.0,28,0.00,,,0.00,75.000000,,2013-04-28 02:12:00,
2013-04-27 19:21:00,65.0,31.0,-100.00,West,268,3.0,9.0,28,0.00,,,0.00,75.000000,,2013-04-28 02:21:00,
2013-04-27 19:32:00,65.0,31.0,-100.00,West,268,3.0,9.0,28,0.00,,,0.00,75.000000,,2013-04-28 02:32:00,
2013-04-27 19:42:00,65.0,31.0,-100.00,West,268,3.0,9.0,28,0.00,,,0.00,75.000000,,2013-04-28 02:42:00,
2013-04-27 19:51:00,56.0,34.0,-100.00,ESE,120,2.0,6.0,43,0.00,,,0.00,32.000000,,2013-04-28 02:51:00,
2013-04-27 20:21:00,56.0,34.0,-100.00,ESE,120,2.0,6.0,43,0.00,,,0.00,32.000000,,2013-04-28 03:21:00,
2013-04-27 20:32:00,56.0,34.0,-100.00,ESE,120,2.0,6.0,43,0.00,,,0.00,32.000000,,2013-04-28 03:32:00,
2013-04-27 20:42:00,56.0,34.0,-100.00,ESE,120,2.0,6.0,43,0.00,,,0.00,32.000000,,2013-04-28 03:42:00,
2013-04-27 20:51:00,54.0,32.0,-100.00,SSE,156,5.0,7.0,43,0.00,,,0.00,1.000000,,2013-04-28 03:51:00,
2013-04-27 21:13:00,54.0,32.0,-100.00,SSE,156,5.0,7.0,43,0.00,,,0.00,1.000000,,2013-04-28 04:13:00,
2013-04-27 21:22:00,54.0,32.0,-100.00,SSE,156,5.0,7.0,43,0.00,,,0.00,1.000000,,2013-04-28 04:22:00,
2013-04-27 21:32:00,54.0,32.0,-100.00,SSE,156,5.0,7.0,43,0.00,,,0.00,1.000000,,2013-04-28 04:32:00,
2013-04-27 21:42:00,54.0,32.0,-100.00,SSE,156,5.0,7.0,43,0.00,,,0.00,1.000000,,2013-04-28 04:42:00,
2013-04-27 21:51:00,47.0,34.0,-100.00,SW,235,2.0,4.0,60,0.00,,,0.00,1.000000,,2013-04-28 04:51:00,
2013-04-27 22:12:00,47.0,34.0,-100.00,SW,235,2.0,4.0,60,0.00,,,0.00,1.000000,,2013-04-28 05:12:00,
2013-04-27 22:22:00,47.0,34.0,-100.00,SW,235,2.0,4.0,60,0.00,,,0.00,1.000000,,2013-04-28 05:22:00,
2013-04-27 22:32:00,47.0,34.0,-100.00,SW,235,2.0,4.0,60,0.00,,,0.00,1.000000,,2013-04-28 05:32:00,
2013-04-27 22:42:00,47.0,34.0,-100.00,SW,235,2.0,4.0,60,0.00,,,0.00,1.000000,,2013-04-28 05:42:00,
2013-04-27 22:51:00,45.0,31.0,-100.00,South,169,2.0,7.0,57,0.00,,,0.00,1.000000,,2013-04-28 05:51:00,
2013-04-27 23:21:00,45.0,31.0,-100.00,South,169,2.0,7.0,57,0.00,,,0.00,1.000000,,2013-04-28 06:21:00,
2013-04-27 23:32:00,45.0,31.0,-100.00,South,169,2.0,7.0,57,0.00,,,0.00,1.000000,,2013-04-28 06:32:00,
2013-04-27 23:42:00,45.0,31.0,-100.00,South,169,2.0,7.0,57,0.00,,,0.00,1.000000,,2013-04-28 06:42:00,